Time;durP1;ratioP1;P1;durP2;ratioP2;P2;SDS_P1;SDS_P2;PMS_P1;PMS_P2;Temp;Humidity;BMP_temperature;BMP_pressure;BME280_temperature;BME280_humidity;BME280_pressure;Samples;Min_cycle;Max_cycle;Signal;HPM_P1;HPM_P2
2022/01/11 00:00:37;;;;;;;34.90;12.57;;;;;;;0.06;100.00;96432.75;5104064;28;20404;-78
2022/01/11 00:03:10;;;;;;;35.70;12.95;;;;;;;0.04;100.00;96434.72;5098865;28;20078;-78
2022/01/11 00:05:53;;;;;;;33.95;13.13;;;;;;;0.08;100.00;96435.97;5102243;27;20075;-79
2022/01/11 00:08:28;;;;;;;33.05;12.55;;;;;;;0.11;100.00;96425.25;5103425;28;20560;-78
2022/01/11 00:11:02;;;;;;;32.40;12.48;;;;;;;0.14;100.00;96435.25;5092775;28;20482;-78
2022/01/11 00:13:29;;;;;;;38.03;13.25;;;;;;;0.14;100.00;96435.25;5103837;28;20028;-78
2022/01/11 00:15:54;;;;;;;36.70;13.32;;;;;;;0.13;100.00;96428.47;5112897;27;20039;-78
2022/01/11 00:18:20;;;;;;;31.13;12.27;;;;;;;0.19;100.00;96437.31;5096806;28;20047;-78
2022/01/11 00:20:45;;;;;;;35.88;13.10;;;;;;;0.14;100.00;96434.44;5112278;28;20047;-78
2022/01/11 00:25:40;;;;;;;33.95;12.90;;;;;;;0.08;100.00;96451.50;5115509;27;20051;-79
2022/01/11 00:28:07;;;;;;;33.95;12.85;;;;;;;0.10;100.00;96444.38;5103508;28;20035;-78
2022/01/11 00:30:36;;;;;;;32.42;12.23;;;;;;;0.12;100.00;96447.56;5111663;28;20085;-78
2022/01/11 00:33:07;;;;;;;31.02;12.55;;;;;;;0.11;100.00;96451.13;5109698;28;20062;-79
2022/01/11 00:35:42;;;;;;;30.17;11.82;;;;;;;0.06;100.00;96456.06;5095929;28;20074;-79
2022/01/11 00:38:10;;;;;;;31.90;12.40;;;;;;;0.09;100.00;96460.88;5094009;28;20075;-78
2022/01/11 00:40:36;;;;;;;36.13;13.10;;;;;;;0.03;100.00;96459.00;5109973;28;20032;-77
2022/01/11 00:43:04;;;;;;;33.15;12.27;;;;;;;0.05;100.00;96457.03;5105116;28;20047;-78
2022/01/11 00:45:30;;;;;;;29.35;11.52;;;;;;;0.07;100.00;96465.44;5109011;28;20617;-78
2022/01/11 00:47:57;;;;;;;35.88;12.65;;;;;;;0.01;100.00;96475.69;5105267;28;20044;-79
2022/01/11 00:50:24;;;;;;;31.58;12.90;;;;;;;0.02;100.00;96465.16;5109744;28;20127;-79
2022/01/11 00:52:50;;;;;;;33.33;12.80;;;;;;;0.01;100.00;96471.31;5102451;27;20160;-79
2022/01/11 00:55:17;;;;;;;31.67;12.50;;;;;;;0.01;100.00;96471.31;5112535;27;20162;-76
2022/01/11 00:57:42;;;;;;;35.70;13.07;;;;;;;-0.03;100.00;96481.22;5093725;28;20413;-78
2022/01/11 01:00:11;;;;;;;36.88;13.13;;;;;;;-0.01;100.00;96474.06;5097578;27;20047;-78
2022/01/11 01:02:41;;;;;;;39.17;12.95;;;;;;;0.02;100.00;96482.47;5108626;28;20097;-78
2022/01/11 01:05:07;;;;;;;36.25;12.30;;;;;;;0.09;100.00;96486.75;5101477;27;20063;-78
2022/01/11 01:07:33;;;;;;;38.55;13.60;;;;;;;-0.03;100.00;96481.22;5122912;27;20076;-77
2022/01/11 01:10:05;;;;;;;41.40;14.48;;;;;;;-0.03;100.00;96490.75;5104968;27;20398;-78
2022/01/11 01:12:31;;;;;;;36.38;13.85;;;;;;;-0.01;100.00;96494.78;5124477;27;20043;-77
2022/01/11 01:14:56;;;;;;;36.83;12.32;;;;;;;0.01;100.00;96499.78;5093540;28;20071;-77
2022/01/11 01:17:22;;;;;;;45.53;15.02;;;;;;;-0.02;100.00;96497.53;5110616;27;20413;-78
2022/01/11 01:19:48;;;;;;;36.42;13.75;;;;;;;-0.05;100.00;96490.13;5099738;28;20106;-78
2022/01/11 01:22:14;;;;;;;38.38;13.05;;;;;;;-0.11;100.00;96488.28;5096551;28;20035;-76
2022/01/11 01:24:40;;;;;;;44.00;13.38;;;;;;;-0.10;100.00;96492.44;5105525;27;20493;-79
2022/01/11 01:27:06;;;;;;;39.72;13.70;;;;;;;-0.03;100.00;96495.94;5101968;27;20032;-77
2022/01/11 01:29:31;;;;;;;38.30;14.25;;;;;;;-0.05;100.00;96492.72;5101459;27;20046;-78
2022/01/11 01:31:58;;;;;;;37.50;13.43;;;;;;;-0.02;100.00;96492.38;5105322;28;20039;-77
2022/01/11 01:34:24;;;;;;;35.05;12.73;;;;;;;-0.08;100.00;96493.09;5109403;27;20340;-77
2022/01/11 01:36:50;;;;;;;32.08;12.75;;;;;;;-0.20;100.00;96493.53;5111056;27;20039;-77
2022/01/11 01:39:16;;;;;;;35.60;12.93;;;;;;;-0.13;100.00;96505.75;5098058;27;20047;-77
2022/01/11 01:41:44;;;;;;;39.63;12.95;;;;;;;-0.03;100.00;96507.09;5098654;28;20047;-77
2022/01/11 01:44:11;;;;;;;38.70;13.38;;;;;;;-0.16;100.00;96500.94;5090104;28;20051;-77
2022/01/11 01:46:36;;;;;;;40.53;13.32;;;;;;;-0.15;100.00;96497.38;5118140;27;20140;-78
2022/01/11 01:49:03;;;;;;;39.42;14.25;;;;;;;-0.10;100.00;96500.22;5083942;28;20516;-77
2022/01/11 01:51:29;;;;;;;38.33;13.70;;;;;;;-0.18;100.00;96499.31;5093320;28;20390;-78
2022/01/11 01:53:56;;;;;;;31.38;12.80;;;;;;;-0.18;100.00;96499.31;5110174;28;20039;-78
2022/01/11 01:56:22;;;;;;;38.65;13.60;;;;;;;-0.13;100.00;96500.56;5110585;27;20035;-78
2022/01/11 01:58:49;;;;;;;37.72;13.05;;;;;;;-0.14;100.00;96498.94;5115103;27;20641;-78
2022/01/11 02:01:15;;;;;;;37.65;13.40;;;;;;;-0.21;100.00;96499.66;5092603;28;20044;-77
2022/01/11 02:03:42;;;;;;;40.63;13.65;;;;;;;-0.22;100.00;96500.63;5080803;28;20039;-78
2022/01/11 02:06:13;;;;;;;38.80;13.77;;;;;;;-0.22;100.00;96508.41;5106437;27;20099;-77
2022/01/11 02:08:39;;;;;;;41.15;14.15;;;;;;;-0.21;100.00;96504.84;5103577;27;20052;-77
2022/01/11 02:11:06;;;;;;;37.40;13.80;;;;;;;-0.28;100.00;96514.28;5096293;28;20385;-77
2022/01/11 02:13:32;;;;;;;39.65;13.60;;;;;;;-0.27;100.00;96510.72;5099261;28;20093;-78
2022/01/11 02:15:58;;;;;;;39.45;12.88;;;;;;;-0.04;100.00;96507.28;5111480;27;20057;-77
2022/01/11 02:18:26;;;;;;;45.25;14.45;;;;;;;-0.21;100.00;96515.19;5115624;27;20039;-78
2022/01/11 02:20:58;;;;;;;35.92;13.02;;;;;;;-0.09;100.00;96512.19;5098699;28;20040;-78
2022/01/11 02:23:27;;;;;;;44.15;13.05;;;;;;;-0.22;100.00;96523.91;5097810;28;20112;-78
2022/01/11 02:25:52;;;;;;;43.50;14.35;;;;;;;-0.35;100.00;96513.38;5109822;27;20043;-77
2022/01/11 02:28:21;;;;;;;39.15;13.35;;;;;;;-0.09;100.00;96519.94;5115205;27;20044;-78
2022/01/11 02:30:47;;;;;;;32.58;12.95;;;;;;;-0.23;100.00;96526.69;5084023;27;20048;-78
2022/01/11 02:33:31;;;;;;;39.42;13.90;;;;;;;-0.23;100.00;96532.69;5114053;27;20046;-78
2022/01/11 02:35:58;;;;;;;36.60;13.18;;;;;;;-0.23;100.00;96527.50;5098133;27;20046;-77
2022/01/11 02:38:24;;;;;;;33.97;13.48;;;;;;;-0.25;100.00;96529.44;5102953;27;20114;-77
2022/01/11 02:40:49;;;;;;;36.00;13.32;;;;;;;-0.32;100.00;96533.72;5091441;27;20198;-78
2022/01/11 02:43:15;;;;;;;42.25;13.88;;;;;;;-0.26;100.00;96538.22;5096727;28;20071;-78
2022/01/11 02:45:40;;;;;;;36.28;14.40;;;;;;;-0.25;100.00;96534.63;5104118;28;20047;-77
2022/01/11 02:48:06;;;;;;;43.08;15.13;;;;;;;-0.33;100.00;96532.13;5094580;28;20044;-79
2022/01/11 02:50:32;;;;;;;46.05;13.77;;;;;;;-0.34;100.00;96525.34;5108597;28;20054;-78
2022/01/11 02:52:58;;;;;;;42.55;14.10;;;;;;;-0.30;100.00;96534.38;5117747;27;20035;-77
2022/01/11 02:55:23;;;;;;;43.47;15.50;;;;;;;-0.27;100.00;96535.81;5097675;27;20051;-77
2022/01/11 02:57:49;;;;;;;36.22;13.40;;;;;;;-0.33;100.00;96532.13;5115850;27;20040;-78
2022/01/11 03:00:18;;;;;;;35.10;13.10;;;;;;;-0.27;100.00;96531.44;5109792;27;20493;-78
2022/01/11 03:02:44;;;;;;;39.72;14.38;;;;;;;-0.26;100.00;96533.03;5092309;28;20073;-78
2022/01/11 03:05:11;;;;;;;43.47;14.90;;;;;;;-0.24;100.00;96531.06;5103055;28;20044;-78
2022/01/11 03:07:38;;;;;;;38.20;13.57;;;;;;;-0.26;100.00;96527.88;5097778;28;20074;-77
2022/01/11 03:10:20;;;;;;;36.88;13.90;;;;;;;-0.22;100.00;96529.09;5094572;28;20111;-77
2022/01/11 03:12:46;;;;;;;42.60;14.57;;;;;;;-0.34;100.00;96533.09;5111948;27;20046;-78
2022/01/11 03:15:13;;;;;;;44.58;15.10;;;;;;;-0.31;100.00;96545.69;5114353;27;20047;-77
2022/01/11 03:17:40;;;;;;;43.22;14.93;;;;;;;-0.33;100.00;96537.31;5099502;28;20048;-78
2022/01/11 03:20:07;;;;;;;44.47;15.35;;;;;;;-0.33;100.00;96537.31;5113265;27;20047;-77
2022/01/11 03:22:32;;;;;;;48.55;14.52;;;;;;;-0.33;100.00;96537.31;5098277;28;20044;-77
2022/01/11 03:24:58;;;;;;;39.20;14.20;;;;;;;-0.39;100.00;96543.97;5107463;28;20096;-78
2022/01/11 03:27:23;;;;;;;46.70;15.27;;;;;;;-0.37;100.00;96546.38;5089669;28;20093;-78
2022/01/11 03:29:51;;;;;;;47.33;15.88;;;;;;;-0.35;100.00;96549.59;5109312;28;20031;-77
2022/01/11 03:32:18;;;;;;;44.15;14.98;;;;;;;-0.38;100.00;96542.97;5106358;28;20050;-77
2022/01/11 03:34:45;;;;;;;44.30;15.10;;;;;;;-0.38;100.00;96549.94;5108326;27;20035;-78
2022/01/11 03:37:16;;;;;;;42.50;15.45;;;;;;;-0.33;100.00;96552.00;5096014;28;20037;-78
2022/01/11 03:39:42;;;;;;;46.05;14.00;;;;;;;-0.35;100.00;96547.00;5100470;28;20070;-78
2022/01/11 03:42:08;;;;;;;38.72;14.32;;;;;;;-0.36;100.00;96547.97;5100213;28;20044;-77
2022/01/11 03:44:34;;;;;;;38.88;14.93;;;;;;;-0.37;100.00;96551.56;5110224;28;20047;-78
2022/01/11 03:46:59;;;;;;;37.38;13.75;;;;;;;-0.28;100.00;96547.13;5107599;28;20507;-77
2022/01/11 03:49:25;;;;;;;36.97;13.27;;;;;;;-0.19;100.00;96549.47;5103349;27;20523;-78
2022/01/11 03:51:51;;;;;;;39.13;14.52;;;;;;;-0.22;100.00;96549.78;5118329;27;20039;-77
2022/01/11 03:54:24;;;;;;;36.28;13.07;;;;;;;-0.12;100.00;96554.72;5114004;27;20048;-77
2022/01/11 03:56:50;;;;;;;31.42;12.23;;;;;;;-0.02;100.00;96549.31;5092150;28;20090;-77
2022/01/11 03:59:16;;;;;;;34.60;13.43;;;;;;;-0.01;100.00;96556.09;5108726;28;20040;-77
2022/01/11 04:01:42;;;;;;;32.83;12.38;;;;;;;0.02;100.00;96539.41;5103730;27;20050;-79
2022/01/11 04:04:09;;;;;;;35.33;12.10;;;;;;;0.02;100.00;96540.22;5106696;28;20416;-78
2022/01/11 04:06:35;;;;;;;33.13;12.63;;;;;;;0.01;100.00;96548.94;5103286;27;20028;-78
2022/01/11 04:09:03;;;;;;;33.92;12.50;;;;;;;-0.01;100.00;96550.91;5102709;28;20036;-78
2022/01/11 04:11:29;;;;;;;35.88;12.43;;;;;;;-0.10;100.00;96547.59;5097393;28;20048;-78
2022/01/11 04:13:54;;;;;;;34.38;13.00;;;;;;;-0.22;100.00;96549.78;5108538;28;20101;-78
2022/01/11 04:16:20;;;;;;;37.20;14.57;;;;;;;-0.44;100.00;96551.44;5103802;28;20043;-78
2022/01/11 04:18:45;;;;;;;38.78;12.18;;;;;;;-0.49;100.00;96552.94;5097351;28;20040;-78
2022/01/11 04:21:11;;;;;;;34.45;13.48;;;;;;;-0.44;100.00;96555.81;5109053;28;20043;-77
2022/01/11 04:23:38;;;;;;;40.53;13.65;;;;;;;-0.39;100.00;96545.75;5110151;27;20043;-78
2022/01/11 04:26:04;;;;;;;37.10;13.65;;;;;;;-0.32;100.00;96549.25;5110306;27;20046;-78
2022/01/11 04:28:30;;;;;;;41.20;13.25;;;;;;;-0.23;100.00;96548.22;5110757;27;20032;-78
2022/01/11 04:31:00;;;;;;;38.65;12.95;;;;;;;-0.23;100.00;96550.78;5110319;28;20039;-77
2022/01/11 04:33:30;;;;;;;35.88;13.18;;;;;;;-0.22;100.00;96552.38;5102651;27;20051;-77
2022/01/11 04:35:57;;;;;;;33.58;11.32;;;;;;;-0.32;100.00;96538.88;5093242;28;20042;-77
2022/01/11 04:38:27;;;;;;;40.65;13.77;;;;;;;-0.18;100.00;96545.09;5103472;27;20036;-77
2022/01/11 04:40:53;;;;;;;38.97;13.02;;;;;;;-0.27;100.00;96557.28;5097262;28;20093;-77
2022/01/11 04:43:19;;;;;;;34.45;13.05;;;;;;;-0.35;100.00;96559.94;5119254;27;20536;-78
2022/01/11 04:45:45;;;;;;;35.70;13.57;;;;;;;-0.42;100.00;96553.84;5106053;27;20118;-78
2022/01/11 04:48:10;;;;;;;43.55;13.95;;;;;;;-0.40;100.00;96562.25;5110087;27;20419;-77
2022/01/11 04:50:36;;;;;;;40.55;13.40;;;;;;;-0.45;100.00;96565.34;5100370;28;20100;-78
2022/01/11 04:53:03;;;;;;;39.13;13.85;;;;;;;-0.38;100.00;96565.47;5101417;28;20048;-77
2022/01/11 04:55:29;;;;;;;34.28;12.38;;;;;;;-0.40;100.00;96562.25;5095439;28;20043;-78
2022/01/11 04:57:55;;;;;;;40.25;13.57;;;;;;;-0.48;100.00;96570.06;5097447;28;20052;-78
2022/01/11 05:00:22;;;;;;;36.22;12.57;;;;;;;-0.45;100.00;96574.91;5108957;28;20040;-77
2022/01/11 05:02:48;;;;;;;35.00;13.00;;;;;;;-0.41;100.00;96576.16;5112685;27;20043;-78
2022/01/11 05:05:15;;;;;;;38.25;13.48;;;;;;;-0.40;100.00;96577.78;5093887;28;20040;-78
2022/01/11 05:07:45;;;;;;;39.35;13.05;;;;;;;-0.41;100.00;96576.94;5109796;27;20035;-78
2022/01/11 05:10:11;;;;;;;37.92;13.18;;;;;;;-0.47;100.00;96576.88;5098450;28;20678;-78
2022/01/11 05:12:38;;;;;;;46.92;14.73;;;;;;;-0.47;100.00;96580.25;5093732;28;20044;-78
2022/01/11 05:15:14;;;;;;;37.58;13.75;;;;;;;-0.45;100.00;96580.06;5108915;28;20039;-78
2022/01/11 05:17:40;;;;;;;38.35;14.15;;;;;;;-0.42;100.00;96584.88;5078689;28;20051;-79
2022/01/11 05:20:07;;;;;;;36.38;13.80;;;;;;;-0.46;100.00;96583.63;5107536;28;20039;-78
2022/01/11 05:22:33;;;;;;;43.50;14.82;;;;;;;-0.45;100.00;96590.41;5106941;27;20044;-77
2022/01/11 05:24:59;;;;;;;43.97;14.75;;;;;;;-0.45;100.00;96590.41;5118427;27;20124;-77
2022/01/11 05:27:27;;;;;;;35.20;13.52;;;;;;;-0.46;100.00;96593.97;5108416;27;20043;-77
2022/01/11 05:29:52;;;;;;;44.70;13.13;;;;;;;-0.45;100.00;96600.75;5103471;28;20508;-77
2022/01/11 05:32:18;;;;;;;41.30;14.05;;;;;;;-0.37;100.00;96592.94;5104966;28;20040;-78
2022/01/11 05:34:43;;;;;;;41.20;13.98;;;;;;;-0.37;100.00;96592.94;5103274;27;20047;-78
2022/01/11 05:37:09;;;;;;;43.65;13.93;;;;;;;-0.39;100.00;96589.72;5089728;28;20044;-78
2022/01/11 05:39:36;;;;;;;45.97;14.30;;;;;;;-0.40;100.00;96593.28;5095035;27;20036;-77
2022/01/11 05:42:06;;;;;;;36.83;14.00;;;;;;;-0.42;100.00;96595.22;5101467;27;20032;-78
2022/01/11 05:44:35;;;;;;;38.78;13.68;;;;;;;-0.32;100.00;96595.81;5102673;27;20054;-77
2022/01/11 05:47:01;;;;;;;36.03;12.48;;;;;;;-0.23;100.00;96589.59;5094887;28;20043;-78
2022/01/11 05:49:26;;;;;;;38.08;15.07;;;;;;;-0.16;100.00;96599.25;5107461;28;20075;-78
2022/01/11 05:51:52;;;;;;;41.35;14.20;;;;;;;-0.26;100.00;96612.41;5097568;28;20078;-78
2022/01/11 05:54:18;;;;;;;43.92;14.10;;;;;;;-0.22;100.00;96611.88;5088444;28;20416;-78
2022/01/11 05:56:43;;;;;;;40.83;13.40;;;;;;;-0.19;100.00;96616.72;5079059;28;20032;-78
2022/01/11 05:59:08;;;;;;;36.03;13.02;;;;;;;-0.06;100.00;96620.50;5109366;28;20052;-78
2022/01/11 06:01:35;;;;;;;37.05;14.35;;;;;;;-0.20;100.00;96620.28;5097995;28;20688;-78
2022/01/11 06:04:00;;;;;;;39.28;13.65;;;;;;;-0.31;100.00;96620.69;5102949;28;20050;-78
2022/01/11 06:06:26;;;;;;;35.40;13.10;;;;;;;-0.32;100.00;96626.84;5099693;28;20036;-78
2022/01/11 06:08:51;;;;;;;40.03;15.55;;;;;;;-0.35;100.00;96632.38;5101444;28;20457;-78
2022/01/11 06:11:17;;;;;;;45.20;14.63;;;;;;;-0.26;100.00;96631.34;5099178;28;20501;-79
2022/01/11 06:13:42;;;;;;;38.85;14.18;;;;;;;-0.13;100.00;96632.53;5081676;28;20110;-79
2022/01/11 06:16:08;;;;;;;43.10;14.05;;;;;;;-0.18;100.00;96639.03;5100966;28;20226;-78
2022/01/11 06:18:34;;;;;;;44.70;14.95;;;;;;;-0.20;100.00;96635.03;5099737;28;20108;-78
2022/01/11 06:21:01;;;;;;;42.63;13.93;;;;;;;-0.21;100.00;96639.38;5105965;28;20538;-78
2022/01/11 06:23:26;;;;;;;43.22;15.65;;;;;;;-0.24;100.00;96644.09;5106027;28;20871;-78
2022/01/11 06:25:52;;;;;;;44.22;15.85;;;;;;;-0.28;100.00;96643.63;5088779;28;20048;-78
2022/01/11 06:28:17;;;;;;;41.28;13.38;;;;;;;-0.20;100.00;96648.75;5095619;28;20032;-79
2022/01/11 06:30:43;;;;;;;50.35;14.63;;;;;;;-0.06;100.00;96646.38;5100648;27;20043;-78
2022/01/11 06:33:09;;;;;;;40.53;14.35;;;;;;;-0.04;100.00;96654.78;5092787;28;20543;-78
2022/01/11 06:35:34;;;;;;;39.20;14.95;;;;;;;-0.13;100.00;96661.00;5104881;27;20047;-77
2022/01/11 06:38:00;;;;;;;44.47;14.90;;;;;;;-0.15;100.00;96657.78;5096616;28;20087;-79
2022/01/11 06:40:26;;;;;;;42.80;15.38;;;;;;;-0.14;100.00;96654.19;5089127;28;20051;-78
2022/01/11 06:42:52;;;;;;;46.15;16.38;;;;;;;-0.30;100.00;96658.53;5102153;28;20035;-78
2022/01/11 06:45:20;;;;;;;41.65;14.60;;;;;;;-0.36;100.00;96646.25;5103234;28;20073;-78
2022/01/11 06:47:46;;;;;;;40.03;14.25;;;;;;;-0.27;100.00;96654.81;5105453;27;20039;-77
2022/01/11 06:50:12;;;;;;;40.45;14.57;;;;;;;-0.16;100.00;96661.34;5095433;28;20097;-78
2022/01/11 06:52:38;;;;;;;38.03;13.35;;;;;;;-0.19;100.00;96663.31;5088909;28;20515;-77
2022/01/11 06:55:06;;;;;;;39.00;14.95;;;;;;;-0.18;100.00;96664.09;5088471;28;20071;-78
2022/01/11 06:57:31;;;;;;;43.20;14.48;;;;;;;-0.27;100.00;96670.31;5102926;28;20047;-78
2022/01/11 06:59:57;;;;;;;46.90;16.05;;;;;;;-0.35;100.00;96681.50;5106501;28;20533;-79
2022/01/11 07:02:23;;;;;;;41.88;15.50;;;;;;;-0.39;100.00;96677.66;5101102;27;20039;-77
2022/01/11 07:04:48;;;;;;;49.95;16.27;;;;;;;-0.35;100.00;96681.50;5089499;28;20517;-77
2022/01/11 07:07:14;;;;;;;42.10;14.82;;;;;;;-0.42;100.00;96683.16;5103819;28;20036;-78
2022/01/11 07:09:39;;;;;;;40.00;14.57;;;;;;;-0.26;100.00;96683.09;5093909;28;20059;-78
2022/01/11 07:12:05;;;;;;;44.47;15.35;;;;;;;-0.25;100.00;96676.91;5095957;28;20067;-78
2022/01/11 07:14:31;;;;;;;45.55;14.93;;;;;;;-0.29;100.00;96686.00;5096772;28;20405;-78
2022/01/11 07:16:57;;;;;;;46.35;15.05;;;;;;;-0.35;100.00;96694.44;5080652;28;20062;-79
2022/01/11 07:19:23;;;;;;;44.95;15.02;;;;;;;-0.33;100.00;96697.69;5098444;27;20031;-78
2022/01/11 07:21:49;;;;;;;55.85;15.88;;;;;;;-0.30;100.00;96697.34;5077627;28;20043;-79
2022/01/11 07:24:16;;;;;;;40.53;15.27;;;;;;;-0.01;100.00;96698.44;5097990;28;20051;-79
2022/01/11 07:26:42;;;;;;;41.47;15.23;;;;;;;-0.02;100.00;96709.75;5099920;28;20040;-78
2022/01/11 07:29:08;;;;;;;38.75;13.63;;;;;;;0.02;100.00;96705.84;5111003;28;20044;-79
2022/01/11 07:31:38;;;;;;;37.58;13.10;;;;;;;0.22;100.00;96700.22;5109742;28;20123;-87
2022/01/11 07:34:05;;;;;;;39.13;13.27;;;;;;;0.12;100.00;96706.41;5105992;28;20035;-80
2022/01/11 07:36:31;;;;;;;37.13;13.18;;;;;;;0.26;100.00;96701.44;5098902;28;20040;-79
2022/01/11 07:38:57;;;;;;;41.28;14.30;;;;;;;0.10;100.00;96700.63;5100237;28;20112;-79
2022/01/11 07:41:23;;;;;;;41.05;13.70;;;;;;;-0.08;100.00;96705.28;5112048;28;20043;-79
2022/01/11 07:43:49;;;;;;;36.95;13.57;;;;;;;-0.07;100.00;96706.88;5110091;28;20091;-79
2022/01/11 07:46:14;;;;;;;31.60;12.13;;;;;;;0.09;100.00;96717.13;5087563;28;20047;-74
2022/01/11 07:48:40;;;;;;;37.10;12.65;;;;;;;0.17;100.00;96719.66;5091697;28;20554;-74
2022/01/11 07:51:06;;;;;;;38.63;13.35;;;;;;;0.24;100.00;96708.59;5107171;28;20039;-74
2022/01/11 07:53:31;;;;;;;31.42;12.43;;;;;;;0.23;100.00;96712.16;5099831;28;20044;-78
2022/01/11 07:55:57;;;;;;;32.97;12.80;;;;;;;0.21;100.00;96708.94;5113290;28;20039;-79
2022/01/11 07:58:24;;;;;;;35.53;12.68;;;;;;;-0.05;100.00;96715.28;5103473;28;20540;-79
2022/01/11 08:00:50;;;;;;;35.28;13.10;;;;;;;-0.02;100.00;96709.75;5103926;28;20105;-79
2022/01/11 08:03:15;;;;;;;35.40;13.30;;;;;;;0.04;100.00;96714.22;5104488;28;20497;-78
2022/01/11 08:05:41;;;;;;;37.13;12.82;;;;;;;0.27;100.00;96716.81;5101864;28;20032;-79
2022/01/11 08:08:07;;;;;;;38.85;12.50;;;;;;;0.23;100.00;96717.34;5105921;28;20054;-80
2022/01/11 08:10:32;;;;;;;38.83;13.30;;;;;;;0.26;100.00;96716.97;5109900;28;20110;-79
2022/01/11 08:12:58;;;;;;;36.42;13.65;;;;;;;0.55;100.00;96720.63;5111746;28;20047;-78
2022/01/11 08:15:24;;;;;;;36.45;12.07;;;;;;;0.64;100.00;96720.38;5106926;28;20050;-79
2022/01/11 08:17:49;;;;;;;45.08;14.05;;;;;;;0.39;100.00;96721.56;5111173;28;20035;-79
2022/01/11 08:20:16;;;;;;;40.33;14.77;;;;;;;0.10;100.00;96716.16;5109041;28;20133;-79
2022/01/11 08:22:42;;;;;;;39.85;14.95;;;;;;;0.29;100.00;96722.63;5107651;28;20054;-79
2022/01/11 08:25:08;;;;;;;38.08;14.23;;;;;;;0.50;100.00;96719.38;5089535;28;20405;-78
2022/01/11 08:27:34;;;;;;;36.90;13.27;;;;;;;0.79;99.88;96712.63;5099751;28;20088;-78
2022/01/11 08:30:04;;;;;;;35.15;12.65;;;;;;;0.76;100.00;96725.13;5109218;28;20467;-78
2022/01/11 08:32:30;;;;;;;38.38;14.40;;;;;;;0.42;100.00;96722.03;5106100;28;20488;-78
2022/01/11 08:34:56;;;;;;;41.60;14.68;;;;;;;0.35;100.00;96726.31;5111208;28;20054;-78
2022/01/11 08:37:21;;;;;;;38.30;15.70;;;;;;;0.33;100.00;96728.25;5106374;28;20047;-78
2022/01/11 08:39:46;;;;;;;41.90;15.35;;;;;;;0.34;100.00;96735.06;5107321;28;20497;-79
2022/01/11 08:42:12;;;;;;;38.78;14.18;;;;;;;0.38;100.00;96725.97;5106529;28;20039;-79
2022/01/11 08:44:45;;;;;;;39.28;14.23;;;;;;;0.49;100.00;96728.13;5113997;28;20040;-79
2022/01/11 08:47:12;;;;;;;42.33;15.10;;;;;;;0.34;100.00;96729.88;5079489;28;20047;-79
2022/01/11 08:49:38;;;;;;;45.50;14.57;;;;;;;0.29;100.00;96734.78;5104587;28;20039;-79
2022/01/11 08:52:04;;;;;;;38.17;14.55;;;;;;;0.42;100.00;96742.75;5095884;28;20065;-79
2022/01/11 08:54:30;;;;;;;52.63;16.52;;;;;;;0.36;100.00;96738.28;5115136;28;20047;-79
2022/01/11 08:56:56;;;;;;;45.88;18.05;;;;;;;0.35;100.00;96752.22;5095116;28;20633;-79
2022/01/11 08:59:25;;;;;;;45.13;16.75;;;;;;;0.34;100.00;96760.94;5091308;28;20713;-78
2022/01/11 09:01:52;;;;;;;45.45;16.95;;;;;;;0.51;100.00;96757.25;5108922;28;20059;-78
2022/01/11 09:04:18;;;;;;;44.10;15.88;;;;;;;0.46;100.00;96769.94;5110878;28;20047;-79
2022/01/11 09:06:44;;;;;;;45.97;16.15;;;;;;;0.42;100.00;96767.88;5093654;28;20736;-79
2022/01/11 09:09:10;;;;;;;43.55;16.17;;;;;;;0.51;100.00;96767.59;5113500;28;20115;-79
2022/01/11 09:11:36;;;;;;;41.08;14.23;;;;;;;0.51;100.00;96766.81;5110639;28;20035;-79
2022/01/11 09:14:01;;;;;;;70.82;17.13;;;;;;;0.43;100.00;96765.09;5086481;28;20062;-82
2022/01/11 09:16:27;;;;;;;40.58;14.48;;;;;;;0.55;100.00;96769.84;5110102;28;20346;-79
2022/01/11 09:18:53;;;;;;;42.38;13.07;;;;;;;0.47;100.00;96776.69;5107657;27;20169;-79
2022/01/11 09:21:20;;;;;;;38.95;15.10;;;;;;;0.38;100.00;96775.16;5104477;28;20046;-76
2022/01/11 09:23:47;;;;;;;40.55;15.48;;;;;;;0.41;100.00;96777.41;5100672;27;20040;-75
2022/01/11 09:26:13;;;;;;;41.38;15.57;;;;;;;0.30;100.00;96785.56;5083583;28;20048;-76
2022/01/11 09:28:40;;;;;;;36.78;14.60;;;;;;;0.19;100.00;96784.19;5104080;27;20547;-74
2022/01/11 09:31:06;;;;;;;50.33;15.60;;;;;;;0.28;100.00;96788.34;5110333;27;20126;-75
2022/01/11 09:33:32;;;;;;;30.20;12.30;;;;;;;0.25;99.81;96777.53;5097346;27;20068;-75
2022/01/11 09:35:58;;;;;;;34.22;14.07;;;;;;;0.44;100.00;96792.59;5101841;28;20036;-75
2022/01/11 09:38:24;;;;;;;34.70;12.60;;;;;;;0.40;100.00;96796.50;5081746;28;20051;-75
2022/01/11 09:40:52;;;;;;;39.13;14.05;;;;;;;0.46;100.00;96789.81;5111248;28;20039;-75
2022/01/11 09:43:21;;;;;;;40.08;13.40;;;;;;;0.50;100.00;96788.50;5106822;28;20047;-75
2022/01/11 09:45:48;;;;;;;37.72;13.18;;;;;;;0.55;100.00;96787.97;5085812;28;20639;-74
2022/01/11 09:48:14;;;;;;;36.28;13.65;;;;;;;0.51;100.00;96783.16;5087558;28;20034;-74
2022/01/11 09:50:39;;;;;;;37.60;13.35;;;;;;;0.64;100.00;96786.94;5121269;27;20903;-75
2022/01/11 09:53:05;;;;;;;39.28;13.68;;;;;;;0.52;100.00;96782.19;5114000;27;20063;-77
2022/01/11 09:55:31;;;;;;;31.27;12.60;;;;;;;0.57;100.00;96780.84;5100184;28;20059;-76
2022/01/11 09:57:56;;;;;;;41.47;14.25;;;;;;;0.50;100.00;96781.56;5109033;27;20048;-75
2022/01/11 10:00:22;;;;;;;35.25;13.75;;;;;;;0.43;100.00;96785.81;5107948;28;20568;-74
2022/01/11 10:02:48;;;;;;;37.00;13.63;;;;;;;0.46;100.00;96780.28;5084926;28;20401;-75
2022/01/11 10:05:14;;;;;;;42.17;15.65;;;;;;;0.50;100.00;96784.16;5103026;27;20048;-75
2022/01/11 10:07:41;;;;;;;42.95;14.73;;;;;;;0.48;100.00;96775.72;5104838;27;20044;-75
2022/01/11 10:10:21;;;;;;;37.38;14.00;;;;;;;0.42;100.00;96784.19;5103650;27;20043;-75
2022/01/11 10:12:58;;;;;;;48.25;15.20;;;;;;;0.43;100.00;96775.47;5098409;27;20114;-75
2022/01/11 10:15:27;;;;;;;39.22;15.25;;;;;;;0.52;100.00;96774.41;5107937;27;20063;-75
2022/01/11 10:17:53;;;;;;;45.30;14.82;;;;;;;0.55;100.00;96777.59;5099203;27;20677;-75
2022/01/11 10:20:22;;;;;;;38.60;13.82;;;;;;;0.47;100.00;96771.53;5114851;27;20040;-75
2022/01/11 10:22:50;;;;;;;37.15;13.25;;;;;;;0.52;100.00;96769.22;5108490;27;20507;-74
2022/01/11 10:25:16;;;;;;;53.40;14.73;;;;;;;0.69;100.00;96764.72;5114970;27;20043;-76
2022/01/11 10:27:43;;;;;;;39.50;14.27;;;;;;;0.82;100.00;96771.06;5096734;27;20165;-76
2022/01/11 10:30:12;;;;;;;35.25;13.82;;;;;;;0.72;99.94;96766.16;5105615;28;20088;-75
2022/01/11 10:32:45;;;;;;;39.42;14.13;;;;;;;0.81;99.76;96767.69;5112500;27;20048;-76
2022/01/11 10:35:23;;;;;;;43.83;14.55;;;;;;;0.80;99.32;96766.06;5090808;27;20032;-76
2022/01/11 10:37:51;;;;;;;36.72;13.80;;;;;;;0.81;98.36;96765.09;5101539;28;20036;-77
2022/01/11 10:40:26;;;;;;;35.17;13.68;;;;;;;0.94;99.66;96766.28;5093341;28;20047;-75
2022/01/11 10:42:58;;;;;;;36.10;12.63;;;;;;;1.00;97.65;96770.75;5109343;27;20053;-77
2022/01/11 10:45:37;;;;;;;32.15;12.50;;;;;;;1.09;96.95;96764.47;5111333;27;20584;-76
2022/01/11 10:48:05;;;;;;;35.42;12.65;;;;;;;0.91;96.43;96769.22;5124090;27;20061;-76
2022/01/11 10:50:35;;;;;;;31.17;11.77;;;;;;;1.33;96.82;96765.22;5113446;27;20050;-76
2022/01/11 10:53:03;;;;;;;32.28;12.13;;;;;;;0.83;98.78;96765.72;5095038;28;20064;-76
2022/01/11 10:55:31;;;;;;;32.40;13.20;;;;;;;0.76;97.73;96770.00;5116470;27;20481;-76
2022/01/11 10:58:01;;;;;;;30.52;13.02;;;;;;;0.86;96.74;96770.56;5119208;27;20502;-78
2022/01/11 11:00:26;;;;;;;36.25;11.90;;;;;;;0.96;96.53;96775.50;5092010;28;20051;-76
2022/01/11 11:03:14;;;;;;;27.83;11.52;;;;;;;1.11;97.75;96775.50;5087881;28;20040;-76
2022/01/11 11:05:47;;;;;;;46.47;12.32;;;;;;;1.07;94.11;96782.00;5107658;28;20055;-78
2022/01/11 11:08:17;;;;;;;26.60;11.45;;;;;;;0.91;96.38;96782.19;5115510;27;20042;-79
2022/01/11 11:10:46;;;;;;;36.28;12.18;;;;;;;0.68;97.24;96780.44;5099461;28;20044;-77
2022/01/11 11:13:35;;;;;;;28.23;11.52;;;;;;;0.85;96.09;96784.50;5098173;28;20114;-76
2022/01/11 11:16:25;;;;;;;30.65;12.30;;;;;;;0.83;95.86;96783.03;5087936;28;20036;-76